Latest Weather Observations for Low Rocky Point

IDT60801

Issued at 2:35 pm EDT Sunday 23 November 2014 (issued every 30 minutes, with the page automatically refreshed every 10 minutes)

About weather observations | Map of weather stations | Latest weather observations for TAS | Other Formats
Station Details ID: 097080 Name: LOW ROCKY POINT Lat: -42.98 Lon: 145.50 Height: 34.0 m
Data from the previous 72 hours. | See also: Recent months at Low Rocky Point
Date/Time
EDT
Temp
°C
App
Temp
°C
Dew
Point
Rel
Hum
%
Delta-T
°C
Wind Press
QNH
hPa
Press
MSL
hPa
Rain
since 9 am
mm
Dir
 
Spd
km/h
Gust
km/h
Spd
kts
Gust
kts
23/02:30pm 16.1 8.7 11.1 72 2.7 NW 41 50 22 27 1010.6 1010.6 0.2
23/02:00pm 15.8 8.0 11.2 74 2.5 NNW 43 50 23 27 1010.4 1010.4 0.2
23/01:30pm 16.2 8.8 11.2 72 2.7 NW 41 50 22 27 1010.4 1010.4 0.2
23/01:00pm 15.3 8.1 10.7 74 2.4 NW 39 46 21 25 1010.4 1010.4 0.2
23/12:30pm 16.5 10.1 12.1 75 2.4 NW 37 46 20 25 1010.3 1010.3 0.2
23/12:00pm 15.9 9.1 11.9 77 2.2 NW 39 48 21 26 1010.4 1010.4 0.2
23/11:30am 15.7 8.8 11.5 76 2.3 NW 39 46 21 25 1010.3 1010.3 0.2
23/11:00am 15.8 9.8 12.2 79 2.0 NW 35 44 19 24 1010.2 1010.2 0.2
23/10:30am 15.0 8.8 11.4 79 1.9 NW 35 41 19 22 1010.1 1010.1 0.0
23/10:00am 14.2 7.9 11.0 81 1.7 NW 35 43 19 23 1010.0 1010.0 0.0
23/09:30am 14.5 8.0 11.6 83 1.6 NW 37 44 20 24 1009.7 1009.7 0.0
23/09:00am 13.5 7.8 11.0 85 1.3 NW 32 41 17 22 1009.6 1009.6 1.6
23/08:30am 13.4 7.7 11.1 86 1.2 NW 32 39 17 21 1009.0 1009.0 1.6
23/08:00am 13.4 7.8 11.5 88 1.0 NW 32 37 17 20 1008.6 1008.6 1.6
23/07:30am 12.9 7.0 11.3 90 0.8 NW 33 41 18 22 1008.3 1008.3 1.6
23/07:00am 12.4 6.5 11.1 92 0.7 WNW 33 39 18 21 1008.0 1008.0 1.6
23/06:30am 12.3 6.6 11.2 93 0.6 WNW 32 41 17 22 1007.6 1007.6 1.6
23/06:00am 12.2 6.3 11.3 94 0.5 WNW 33 41 18 22 1006.9 1006.9 1.6
23/05:30am 12.3 6.1 11.5 95 0.4 WNW 35 43 19 23 1006.5 1006.5 1.6
23/05:00am 12.5 6.4 11.9 96 0.3 WNW 35 43 19 23 1006.3 1006.3 1.6
23/04:30am 12.9 7.6 12.4 97 0.3 NW 32 37 17 20 1006.0 1006.0 1.6
23/04:00am 12.8 7.8 12.3 97 0.3 NW 30 39 16 21 1005.6 1005.6 1.6
23/03:30am 12.8 7.3 12.3 97 0.3 NW 33 43 18 23 1005.5 1005.5 1.6
23/03:00am 12.9 7.6 12.4 97 0.3 NW 32 39 17 21 1005.5 1005.5 1.6
23/02:30am 12.9 7.6 12.4 97 0.3 NW 32 41 17 22 1005.4 1005.4 1.6
23/02:00am 13.0 8.1 12.5 97 0.3 WNW 30 35 16 19 1005.4 1005.4 1.6
23/01:30am 13.2 7.8 12.9 98 0.2 WNW 33 39 18 21 1005.2 1005.2 1.6
23/01:00am 13.5 8.7 13.0 97 0.3 NW 30 35 16 19 1005.0 1005.0 1.6
23/12:30am 13.6 9.2 13.0 96 0.3 NW 28 35 15 19 1004.8 1004.8 1.6
23/12:00am 13.8 9.0 13.0 95 0.4 NW 30 33 16 18 1004.6 1004.6 1.6
 
Date/Time
EDT
Temp
°C
App
Temp
°C
Dew
Point
Rel
Hum
%
Delta-T
°C
Wind Press
QNH
hPa
Press
MSL
hPa
Rain
since 9 am
mm
Dir
 
Spd
km/h
Gust
km/h
Spd
kts
Gust
kts
22/11:30pm 13.9 9.8 12.8 93 0.6 NW 26 30 14 16 1004.5 1004.5 1.6
22/11:00pm 13.9 9.4 12.6 92 0.7 NW 28 32 15 17 1004.5 1004.5 1.6
22/10:30pm 14.2 10.1 12.8 91 0.8 NW 26 33 14 18 1004.6 1004.6 1.6
22/10:00pm 14.3 10.2 12.7 90 0.9 NW 26 33 14 18 1004.4 1004.4 1.6
22/09:30pm 14.4 10.3 12.8 90 0.9 NW 26 32 14 17 1003.8 1003.8 1.6
22/09:00pm 14.3 10.6 12.7 90 0.9 NNW 24 30 13 16 1003.5 1003.5 1.6
22/08:30pm 14.6 10.3 13.1 91 0.8 NNW 28 33 15 18 1003.6 1003.6 1.6
22/08:00pm 14.8 11.0 13.5 92 0.7 NNW 26 33 14 18 1003.4 1003.4 1.6
22/07:30pm 14.6 11.5 13.5 93 0.6 NNW 22 32 12 17 1003.5 1003.5 1.6
22/07:00pm 14.5 11.0 13.4 93 0.6 NNW 24 32 13 17 1003.5 1003.5 1.6
22/06:30pm 14.6 10.3 13.3 92 0.7 NNW 28 35 15 19 1003.5 1003.5 1.4
22/06:00pm 14.5 9.4 13.2 92 0.7 NNW 32 39 17 21 1003.4 1003.4 1.4
22/05:30pm 14.4 9.6 12.8 90 0.9 NNW 30 37 16 20 1003.5 1003.5 1.2
22/05:00pm 14.4 8.1 12.3 87 1.1 NNW 37 52 20 28 1003.5 1003.5 0.6
22/04:30pm 15.5 9.7 12.6 83 1.6 NNW 35 50 19 27 1003.4 1003.4 0.6
22/04:00pm 15.0 7.6 12.5 85 1.4 NNW 43 59 23 32 1003.6 1003.6 0.6
22/03:44pm 15.0 8.0 12.5 85 1.4 NNW 41 61 22 33 1003.7 1003.7 0.6
22/03:30pm 15.0 8.0 12.5 85 1.4 NNW 41 50 22 27 1004.0 1004.0 0.6
22/03:00pm 15.3 9.9 12.8 85 1.4 NW 33 39 18 21 1003.9 1003.9 0.6
22/02:30pm 15.0 9.6 12.1 83 1.6 NNW 32 41 17 22 1004.3 1004.3 0.6
22/02:00pm 15.8 9.9 12.4 80 1.9 NNW 35 44 19 24 1004.1 1004.1 0.6
22/01:30pm 16.0 9.6 13.1 83 1.6 NW 39 46 21 25 1004.5 1004.5 0.6
22/01:00pm 16.3 10.9 13.8 85 1.4 NNW 35 44 19 24 1004.6 1004.6 0.6
22/12:30pm 15.6 10.8 14.0 90 0.9 NNW 32 41 17 22 1005.2 1005.2 0.6
22/12:00pm 14.4 9.2 13.3 93 0.6 NNW 33 50 18 27 1005.3 1005.3 0.6
22/11:30am 14.0 8.4 13.4 96 0.3 N 35 44 19 24 1005.7 1005.7 0.6
22/11:16am 13.7 7.3 13.2 97 0.3 NNW 39 57 21 31 1005.8 1005.8 0.6
22/11:00am 13.2 6.3 12.7 97 0.3 NNW 41 56 22 30 1006.0 1006.0 0.6
22/10:46am 12.9 7.4 12.4 97 0.3 NNW 33 52 18 28 1006.1 1006.1 0.6
22/10:30am 12.8 7.4 12.3 97 0.3 NNW 32 44 17 24 1006.3 1006.3 0.4
22/10:00am 12.6 6.6 12.0 96 0.3 NNW 35 54 19 29 1006.2 1006.2 0.2
22/09:58am 12.6 7.0 12.0 96 0.3 NNW 33 52 18 28 1006.3 1006.3 0.2
22/09:30am 12.9 8.7 12.3 96 0.3 NNW 26 35 14 19 1006.3 1006.3 0.0
22/09:00am 12.5 7.4 11.9 96 0.3 N 30 43 16 23 1006.3 1006.3 3.2
22/08:30am 12.3 6.8 11.8 97 0.3 N 32 46 17 25 1006.2 1006.2 3.2
22/08:00am 12.1 6.0 11.8 98 0.2 N 35 46 19 25 1006.3 1006.3 3.2
22/07:30am 11.8 5.9 11.3 97 0.3 N 33 46 18 25 1006.3 1006.3 3.2
22/07:00am 12.0 4.7 11.4 96 0.3 NNW 41 61 22 33 1006.2 1006.2 2.4
22/06:33am 11.9 4.8 11.0 94 0.5 NNW 39 57 21 31 1006.2 1006.2 1.8
22/06:30am 11.9 4.8 10.8 93 0.6 NNW 39 52 21 28 1006.2 1006.2 1.8
22/06:03am 12.3 4.3 10.5 89 0.9 NNW 43 61 23 33 1006.3 1006.3 0.8
22/06:00am 12.3 3.8 10.5 89 0.9 NNW 46 61 25 33 1006.3 1006.3 0.6
22/05:42am 12.9 3.5 10.3 84 1.3 NNW 50 69 27 37 1006.0 1006.0 0.4
22/05:30am 12.9 2.6 9.7 81 1.6 NNW 54 69 29 37 1005.7 1005.7 0.4
22/05:00am 13.2 5.2 9.1 76 2.1 NNW 41 59 22 32 1005.5 1005.5 0.4
22/04:56am 13.2 5.2 9.1 76 2.1 NNW 41 59 22 32 1005.4 1005.4 0.4
22/04:30am 12.8 5.8 8.3 74 2.2 NNW 35 50 19 27 1005.4 1005.4 0.4
22/04:00am 12.6 6.0 7.9 73 2.3 NNW 32 43 17 23 1005.5 1005.5 0.4
22/03:30am 12.3 6.0 7.6 73 2.3 NNW 30 39 16 21 1005.8 1005.8 0.4
22/03:00am 11.9 6.0 7.4 74 2.2 N 28 39 15 21 1005.2 1005.2 0.4
22/02:30am 11.9 6.0 7.6 75 2.1 N 28 41 15 22 1005.9 1005.9 0.4
22/02:00am 11.7 5.8 7.4 75 2.1 N 28 41 15 22 1006.2 1006.2 0.4
22/01:30am 11.6 5.7 7.5 76 2.0 N 28 37 15 20 1006.9 1006.9 0.4
22/01:00am 11.6 5.7 7.5 76 2.0 N 28 39 15 21 1007.4 1007.4 0.4
22/12:30am 11.0 4.6 7.1 77 1.9 N 30 44 16 24 1007.5 1007.5 0.4
22/12:00am 10.6 4.5 6.7 77 1.8 N 28 39 15 21 1007.9 1007.9 0.4
 
Date/Time
EDT
Temp
°C
App
Temp
°C
Dew
Point
Rel
Hum
%
Delta-T
°C
Wind Press
QNH
hPa
Press
MSL
hPa
Rain
since 9 am
mm
Dir
 
Spd
km/h
Gust
km/h
Spd
kts
Gust
kts
21/11:30pm 10.6 4.5 6.6 76 1.9 N 28 39 15 21 1008.4 1008.4 0.4
21/11:00pm 10.5 4.7 6.3 75 2.0 N 26 39 14 21 1008.9 1008.9 0.4
21/10:30pm 10.7 4.9 6.1 73 2.1 N 26 37 14 20 1009.2 1009.2 0.4
21/10:00pm 11.3 5.2 6.4 72 2.3 N 28 39 15 21 1009.3 1009.3 0.4
21/09:30pm 11.4 5.6 6.3 71 2.4 N 26 35 14 19 1009.4 1009.4 0.4
21/09:00pm 11.7 5.6 6.4 70 2.5 N 28 39 15 21 1009.3 1009.3 0.4
21/08:30pm 11.8 6.5 6.7 71 2.4 NNW 24 32 13 17 1009.1 1009.1 0.4
21/08:00pm 12.1 5.1 6.8 70 2.5 NNW 33 43 18 23 1009.0 1009.0 0.4
21/07:30pm 12.5 5.4 6.5 67 2.9 NNW 33 43 18 23 1008.9 1008.9 0.4
21/07:00pm 12.7 6.2 6.3 65 3.0 NNW 30 39 16 21 1008.9 1008.9 0.4
21/06:30pm 12.6 5.4 6.0 64 3.1 NW 33 41 18 22 1008.6 1008.6 0.4
21/06:00pm 13.2 6.2 5.9 61 3.5 NW 32 37 17 20 1008.5 1008.5 0.4
21/05:30pm 13.6 7.6 5.3 57 3.9 NW 26 33 14 18 1008.5 1008.5 0.4
21/05:00pm 13.9 8.4 6.0 59 3.8 NW 24 30 13 16 1008.5 1008.5 0.4
21/04:30pm 14.6 9.4 7.2 61 3.6 NW 24 30 13 16 1008.7 1008.7 0.4
21/04:00pm 14.3 9.3 6.4 59 3.8 WNW 22 28 12 15 1008.5 1008.5 0.4
21/03:30pm 14.9 10.6 7.7 62 3.6 WNW 20 26 11 14 1008.6 1008.6 0.4
21/03:00pm 14.4 10.1 7.0 61 3.6 WNW 19 22 10 12 1008.4 1008.4 0.4
21/02:30pm 14.3 10.8 8.7 69 2.8 WNW 17 20 9 11 1008.3 1008.3 0.4
21/02:00pm 14.1 10.6 8.7 70 2.7 W 17 20 9 11 1008.1 1008.1 0.4
21/01:30pm 14.0 10.9 10.2 78 2.0 W 17 22 9 12 1008.3 1008.3 0.2
21/01:00pm 13.4 11.6 10.9 85 1.3 WSW 11 17 6 9 1007.8 1007.8 0.2
21/12:30pm 12.9 10.8 11.1 89 0.9 SW 13 20 7 11 1007.8 1007.8 0.2
21/12:00pm 12.0 9.0 10.7 92 0.7 SW 17 22 9 12 1007.5 1007.5 0.2
21/11:30am 11.7 8.1 10.6 93 0.6 SW 20 32 11 17 1007.5 1007.5 0.2
21/11:00am 11.4 7.8 10.5 94 0.5 WSW 20 26 11 14 1007.3 1007.3 0.2
21/10:30am 11.5 8.7 11.3 99 0.1 WSW 17 24 9 13 1007.0 1007.0 0.2
21/10:00am 11.1 7.6 10.9 99 0.1 WSW 20 30 11 16 1006.7 1006.7 0.2
21/09:30am 10.8 8.5 10.6 99 0.1 SW 13 17 7 9 1006.2 1006.2 0.0
21/09:00am 11.1 9.3 10.9 99 0.1 S 11 19 6 10 1005.9 1005.9 7.0
21/08:30am 10.7 8.0 10.5 99 0.1 SW 15 20 8 11 1005.6 1005.6 7.0
21/08:00am 10.5 7.0 10.3 99 0.1 SSW 19 28 10 15 1005.3 1005.3 6.4
21/07:30am 10.8 8.2 10.6 99 0.1 SSW 15 20 8 11 1004.7 1004.7 6.2
21/07:00am 10.5 6.8 10.3 99 0.1 S 20 30 11 16 1004.1 1004.1 6.2
21/06:30am 10.3 6.2 10.1 99 0.1 SSW 22 32 12 17 1003.6 1003.6 6.2
21/06:00am 10.6 6.6 10.4 99 0.1 SSW 22 30 12 16 1002.9 1002.9 6.0
21/05:30am 10.7 6.7 10.5 99 0.1 SSW 22 32 12 17 1002.5 1002.5 6.0
21/05:00am 10.8 6.1 10.6 99 0.1 S 26 35 14 19 1002.0 1002.0 6.0
21/04:30am 11.4 7.2 11.2 99 0.1 SSW 24 35 13 19 1001.7 1001.7 6.0
21/04:00am 11.7 8.6 11.5 99 0.1 WSW 19 26 10 14 1001.4 1001.4 5.6
21/03:30am 11.4 8.6 11.2 99 0.1 WSW 17 22 9 12 1001.3 1001.3 5.2
21/03:00am 11.4 8.9 11.2 99 0.1 WSW 15 20 8 11 1001.1 1001.1 5.2
21/02:30am 11.6 8.4 11.4 99 0.1 WSW 19 26 10 14 1000.9 1000.9 4.8
21/02:00am 12.4 10.2 12.2 99 0.1 SW 15 20 8 11 1000.8 1000.8 4.8
21/01:30am 13.2 8.8 13.0 99 0.1 WNW 28 32 15 17 1000.7 1000.7 4.8
21/01:00am 13.5 8.8 13.3 99 0.1 NW 30 37 16 20 1000.4 1000.4 4.6
21/12:30am 13.6 8.4 13.4 99 0.1 NW 33 43 18 23 1000.3 1000.3 4.6
21/12:00am 13.9 9.4 13.7 99 0.1 NW 30 39 16 21 1000.5 1000.5 4.4
 
Date/Time
EDT
Temp
°C
App
Temp
°C
Dew
Point
Rel
Hum
%
Delta-T
°C
Wind Press
QNH
hPa
Press
MSL
hPa
Rain
since 9 am
mm
Dir
 
Spd
km/h
Gust
km/h
Spd
kts
Gust
kts
20/11:30pm 14.0 11.4 13.8 99 0.1 NNW 20 26 11 14 1000.3 1000.3 4.4
20/11:00pm 14.0 11.0 13.8 99 0.1 NNW 22 26 12 14 1000.4 1000.4 4.4
20/10:30pm 14.0 11.4 13.7 98 0.2 NNW 20 26 11 14 1000.7 1000.7 4.4
20/10:00pm 13.0 12.5 12.5 97 0.3 NE 7 9 4 5 1000.8 1000.8 4.4
20/09:30pm 13.0 12.1 12.5 97 0.3 E 9 11 5 6 1000.9 1000.9 4.4
20/09:00pm 13.1 12.2 12.5 96 0.3 E 9 11 5 6 1000.5 1000.5 2.8
20/08:30pm 13.4 14.3 12.8 96 0.3 CALM 0 0 0 0 1000.9 1000.9 2.2
20/08:00pm 13.4 14.3 12.8 96 0.3 CALM 0 0 0 0 1000.8 1000.8 2.2
20/07:30pm 13.3 12.9 12.5 95 0.4 E 6 7 3 4 1000.6 1000.6 2.0
20/07:00pm 13.3 12.9 12.5 95 0.4 E 6 7 3 4 1000.5 1000.5 2.0
20/06:30pm 13.4 12.5 12.5 94 0.5 E 9 13 5 7 1000.5 1000.5 2.0
20/06:00pm 13.4 12.7 12.1 92 0.7 E 7 9 4 5 1000.7 1000.7 2.0
20/05:30pm 13.7 12.7 12.3 91 0.8 ESE 9 11 5 6 1000.7 1000.7 2.0
20/05:00pm 13.9 13.2 12.1 89 1.0 SE 7 11 4 6 1001.1 1001.1 1.0
20/04:30pm 14.2 12.0 12.1 87 1.1 ESE 15 17 8 9 1000.8 1000.8 0.4
20/04:00pm 14.3 12.8 11.8 85 1.4 ESE 11 17 6 9 1000.9 1000.9 0.4
20/03:30pm 15.1 12.9 12.2 83 1.6 SSE 15 19 8 10 1001.3 1001.3 0.2
20/03:00pm 16.3 14.0 13.0 81 1.8 S 17 20 9 11 1001.3 1001.3 0.2

Other Formats:

Comma delimited format used in spreadsheet applications
http://www.bom.gov.au/fwo/IDT60801/IDT60801.95961.axf

JavaScript Object Notation format (JSON) in row-major order
http://www.bom.gov.au/fwo/IDT60801/IDT60801.95961.json